sensor_id;sensor_type;location;lat;lon;timestamp;P1;durP1;ratioP1;P2;durP2;ratioP2
51248;SDS011;39642;47.556;18.728;2023-11-21T00:00:13;10.18;;;3.47;;
51248;SDS011;39642;47.556;18.728;2023-11-21T00:02:40;9.65;;;3.20;;
51248;SDS011;39642;47.556;18.728;2023-11-21T00:05:07;9.50;;;3.20;;
51248;SDS011;39642;47.556;18.728;2023-11-21T00:07:39;9.40;;;3.30;;
51248;SDS011;39642;47.556;18.728;2023-11-21T00:10:06;9.82;;;3.10;;
51248;SDS011;39642;47.556;18.728;2023-11-21T00:12:36;9.25;;;3.08;;
51248;SDS011;39642;47.556;18.728;2023-11-21T00:15:02;9.88;;;3.10;;
51248;SDS011;39642;47.556;18.728;2023-11-21T00:17:34;9.88;;;3.47;;
51248;SDS011;39642;47.556;18.728;2023-11-21T00:20:00;8.27;;;2.70;;
51248;SDS011;39642;47.556;18.728;2023-11-21T00:22:26;10.73;;;3.00;;
51248;SDS011;39642;47.556;18.728;2023-11-21T00:24:52;8.38;;;2.65;;
51248;SDS011;39642;47.556;18.728;2023-11-21T00:27:18;8.77;;;3.05;;
51248;SDS011;39642;47.556;18.728;2023-11-21T00:29:44;9.13;;;2.80;;
51248;SDS011;39642;47.556;18.728;2023-11-21T00:32:09;9.25;;;2.62;;
51248;SDS011;39642;47.556;18.728;2023-11-21T00:34:35;9.10;;;3.00;;
51248;SDS011;39642;47.556;18.728;2023-11-21T00:37:01;10.70;;;3.03;;
51248;SDS011;39642;47.556;18.728;2023-11-21T00:39:28;10.13;;;2.97;;
51248;SDS011;39642;47.556;18.728;2023-11-21T00:41:54;8.40;;;2.70;;
51248;SDS011;39642;47.556;18.728;2023-11-21T00:44:20;9.65;;;3.25;;
51248;SDS011;39642;47.556;18.728;2023-11-21T00:46:45;8.18;;;3.00;;
51248;SDS011;39642;47.556;18.728;2023-11-21T00:49:11;8.80;;;2.97;;
51248;SDS011;39642;47.556;18.728;2023-11-21T00:51:37;9.95;;;2.90;;
51248;SDS011;39642;47.556;18.728;2023-11-21T00:54:03;8.73;;;2.80;;
51248;SDS011;39642;47.556;18.728;2023-11-21T00:56:32;9.52;;;2.92;;
51248;SDS011;39642;47.556;18.728;2023-11-21T00:58:59;10.45;;;2.70;;
51248;SDS011;39642;47.556;18.728;2023-11-21T01:01:25;10.45;;;3.08;;
51248;SDS011;39642;47.556;18.728;2023-11-21T01:03:51;9.75;;;2.92;;
51248;SDS011;39642;47.556;18.728;2023-11-21T01:06:17;8.82;;;2.78;;
51248;SDS011;39642;47.556;18.728;2023-11-21T01:08:43;10.23;;;3.10;;
51248;SDS011;39642;47.556;18.728;2023-11-21T01:11:10;9.75;;;2.87;;
51248;SDS011;39642;47.556;18.728;2023-11-21T01:13:38;9.85;;;2.70;;
51248;SDS011;39642;47.556;18.728;2023-11-21T01:16:04;9.38;;;2.92;;
51248;SDS011;39642;47.556;18.728;2023-11-21T01:18:32;9.20;;;2.80;;
51248;SDS011;39642;47.556;18.728;2023-11-21T01:20:58;8.38;;;2.70;;
51248;SDS011;39642;47.556;18.728;2023-11-21T01:23:26;7.97;;;2.67;;
51248;SDS011;39642;47.556;18.728;2023-11-21T01:25:52;8.32;;;2.60;;
51248;SDS011;39642;47.556;18.728;2023-11-21T01:28:18;8.73;;;2.60;;
51248;SDS011;39642;47.556;18.728;2023-11-21T01:30:45;8.68;;;2.70;;
51248;SDS011;39642;47.556;18.728;2023-11-21T01:33:11;9.63;;;3.05;;
51248;SDS011;39642;47.556;18.728;2023-11-21T01:35:37;8.52;;;2.65;;
51248;SDS011;39642;47.556;18.728;2023-11-21T01:38:03;8.77;;;2.70;;
51248;SDS011;39642;47.556;18.728;2023-11-21T01:40:33;8.43;;;2.83;;
51248;SDS011;39642;47.556;18.728;2023-11-21T01:43:00;8.70;;;2.70;;
51248;SDS011;39642;47.556;18.728;2023-11-21T01:45:29;8.05;;;2.60;;
51248;SDS011;39642;47.556;18.728;2023-11-21T01:47:56;8.85;;;2.90;;
51248;SDS011;39642;47.556;18.728;2023-11-21T01:50:23;8.75;;;2.55;;
51248;SDS011;39642;47.556;18.728;2023-11-21T01:52:50;9.48;;;2.62;;
51248;SDS011;39642;47.556;18.728;2023-11-21T01:55:17;7.85;;;2.37;;
51248;SDS011;39642;47.556;18.728;2023-11-21T01:57:46;10.50;;;2.65;;
51248;SDS011;39642;47.556;18.728;2023-11-21T02:00:13;10.13;;;2.80;;
51248;SDS011;39642;47.556;18.728;2023-11-21T02:02:43;9.65;;;3.10;;
51248;SDS011;39642;47.556;18.728;2023-11-21T02:05:19;9.95;;;2.62;;
51248;SDS011;39642;47.556;18.728;2023-11-21T02:07:45;10.65;;;2.72;;
51248;SDS011;39642;47.556;18.728;2023-11-21T02:10:15;8.38;;;2.60;;
51248;SDS011;39642;47.556;18.728;2023-11-21T02:12:41;8.57;;;2.45;;
51248;SDS011;39642;47.556;18.728;2023-11-21T02:15:12;8.40;;;2.58;;
51248;SDS011;39642;47.556;18.728;2023-11-21T02:17:48;9.25;;;2.67;;
51248;SDS011;39642;47.556;18.728;2023-11-21T02:20:16;9.00;;;2.65;;
51248;SDS011;39642;47.556;18.728;2023-11-21T02:22:52;8.88;;;2.50;;
51248;SDS011;39642;47.556;18.728;2023-11-21T02:25:25;8.68;;;2.53;;
51248;SDS011;39642;47.556;18.728;2023-11-21T02:27:55;7.60;;;2.40;;
51248;SDS011;39642;47.556;18.728;2023-11-21T02:30:22;8.80;;;2.75;;
51248;SDS011;39642;47.556;18.728;2023-11-21T02:32:48;8.60;;;2.45;;
51248;SDS011;39642;47.556;18.728;2023-11-21T02:35:14;9.43;;;2.37;;
51248;SDS011;39642;47.556;18.728;2023-11-21T02:37:41;8.65;;;2.80;;
51248;SDS011;39642;47.556;18.728;2023-11-21T02:40:08;9.27;;;2.72;;
51248;SDS011;39642;47.556;18.728;2023-11-21T02:42:35;10.13;;;2.75;;
51248;SDS011;39642;47.556;18.728;2023-11-21T02:45:01;8.70;;;2.75;;
51248;SDS011;39642;47.556;18.728;2023-11-21T02:47:27;8.77;;;2.62;;
51248;SDS011;39642;47.556;18.728;2023-11-21T02:49:53;7.65;;;2.30;;
51248;SDS011;39642;47.556;18.728;2023-11-21T02:52:18;7.62;;;2.22;;
51248;SDS011;39642;47.556;18.728;2023-11-21T02:54:44;8.13;;;2.67;;
51248;SDS011;39642;47.556;18.728;2023-11-21T02:57:10;8.02;;;2.62;;
51248;SDS011;39642;47.556;18.728;2023-11-21T02:59:36;8.63;;;2.37;;
51248;SDS011;39642;47.556;18.728;2023-11-21T03:02:02;7.82;;;2.50;;
51248;SDS011;39642;47.556;18.728;2023-11-21T03:04:28;8.13;;;2.42;;
51248;SDS011;39642;47.556;18.728;2023-11-21T03:06:54;9.70;;;2.60;;
51248;SDS011;39642;47.556;18.728;2023-11-21T03:09:20;9.57;;;2.70;;
51248;SDS011;39642;47.556;18.728;2023-11-21T03:11:46;9.55;;;2.60;;
51248;SDS011;39642;47.556;18.728;2023-11-21T03:14:12;9.13;;;2.62;;
51248;SDS011;39642;47.556;18.728;2023-11-21T03:16:37;9.38;;;2.70;;
51248;SDS011;39642;47.556;18.728;2023-11-21T03:19:04;8.52;;;2.45;;
51248;SDS011;39642;47.556;18.728;2023-11-21T03:21:30;9.30;;;2.60;;
51248;SDS011;39642;47.556;18.728;2023-11-21T03:23:56;7.80;;;2.40;;
51248;SDS011;39642;47.556;18.728;2023-11-21T03:26:22;9.65;;;2.60;;
51248;SDS011;39642;47.556;18.728;2023-11-21T03:28:48;9.52;;;2.67;;
51248;SDS011;39642;47.556;18.728;2023-11-21T03:31:14;9.63;;;2.47;;
51248;SDS011;39642;47.556;18.728;2023-11-21T03:33:42;8.10;;;2.45;;
51248;SDS011;39642;47.556;18.728;2023-11-21T03:36:08;9.20;;;2.75;;
51248;SDS011;39642;47.556;18.728;2023-11-21T03:38:34;8.15;;;2.65;;
51248;SDS011;39642;47.556;18.728;2023-11-21T03:41:01;7.80;;;2.50;;
51248;SDS011;39642;47.556;18.728;2023-11-21T03:43:27;9.18;;;2.67;;
51248;SDS011;39642;47.556;18.728;2023-11-21T03:45:53;9.27;;;2.80;;
51248;SDS011;39642;47.556;18.728;2023-11-21T03:48:19;8.68;;;2.45;;
51248;SDS011;39642;47.556;18.728;2023-11-21T03:50:45;8.93;;;2.60;;
51248;SDS011;39642;47.556;18.728;2023-11-21T03:53:12;9.57;;;2.75;;
51248;SDS011;39642;47.556;18.728;2023-11-21T03:55:38;8.70;;;2.35;;
51248;SDS011;39642;47.556;18.728;2023-11-21T03:58:04;9.20;;;2.75;;
51248;SDS011;39642;47.556;18.728;2023-11-21T04:00:30;8.82;;;2.70;;
51248;SDS011;39642;47.556;18.728;2023-11-21T04:02:56;8.77;;;2.78;;
51248;SDS011;39642;47.556;18.728;2023-11-21T04:05:22;8.27;;;2.62;;
51248;SDS011;39642;47.556;18.728;2023-11-21T04:07:49;10.90;;;2.92;;
51248;SDS011;39642;47.556;18.728;2023-11-21T04:10:16;9.02;;;2.62;;
51248;SDS011;39642;47.556;18.728;2023-11-21T04:12:42;8.52;;;2.60;;
51248;SDS011;39642;47.556;18.728;2023-11-21T04:15:08;8.85;;;2.80;;
51248;SDS011;39642;47.556;18.728;2023-11-21T04:17:35;7.57;;;2.50;;
51248;SDS011;39642;47.556;18.728;2023-11-21T04:20:02;8.70;;;2.80;;
51248;SDS011;39642;47.556;18.728;2023-11-21T04:22:34;9.43;;;2.80;;
51248;SDS011;39642;47.556;18.728;2023-11-21T04:25:02;10.07;;;3.10;;
51248;SDS011;39642;47.556;18.728;2023-11-21T04:27:28;12.25;;;3.20;;
51248;SDS011;39642;47.556;18.728;2023-11-21T04:29:53;10.93;;;2.80;;
51248;SDS011;39642;47.556;18.728;2023-11-21T04:32:19;9.70;;;2.90;;
51248;SDS011;39642;47.556;18.728;2023-11-21T04:34:45;9.00;;;2.87;;
51248;SDS011;39642;47.556;18.728;2023-11-21T04:37:11;8.95;;;2.72;;
51248;SDS011;39642;47.556;18.728;2023-11-21T04:39:37;8.25;;;2.80;;
51248;SDS011;39642;47.556;18.728;2023-11-21T04:42:03;9.10;;;2.78;;
51248;SDS011;39642;47.556;18.728;2023-11-21T04:44:29;8.48;;;2.55;;
51248;SDS011;39642;47.556;18.728;2023-11-21T04:46:55;9.23;;;2.85;;
51248;SDS011;39642;47.556;18.728;2023-11-21T04:49:21;9.02;;;2.90;;
51248;SDS011;39642;47.556;18.728;2023-11-21T04:51:47;9.38;;;2.78;;
51248;SDS011;39642;47.556;18.728;2023-11-21T04:54:12;9.13;;;2.75;;
51248;SDS011;39642;47.556;18.728;2023-11-21T04:56:38;10.05;;;3.10;;
51248;SDS011;39642;47.556;18.728;2023-11-21T04:59:04;8.80;;;2.65;;
51248;SDS011;39642;47.556;18.728;2023-11-21T05:01:30;8.07;;;2.47;;
51248;SDS011;39642;47.556;18.728;2023-11-21T05:03:56;8.52;;;2.92;;
51248;SDS011;39642;47.556;18.728;2023-11-21T05:06:22;8.50;;;2.85;;
51248;SDS011;39642;47.556;18.728;2023-11-21T05:08:49;9.90;;;2.67;;
51248;SDS011;39642;47.556;18.728;2023-11-21T05:11:25;9.50;;;2.78;;
51248;SDS011;39642;47.556;18.728;2023-11-21T05:13:51;10.32;;;2.90;;
51248;SDS011;39642;47.556;18.728;2023-11-21T05:16:17;13.10;;;3.30;;
51248;SDS011;39642;47.556;18.728;2023-11-21T05:18:43;8.90;;;2.97;;
51248;SDS011;39642;47.556;18.728;2023-11-21T05:21:09;8.98;;;2.90;;
51248;SDS011;39642;47.556;18.728;2023-11-21T05:23:35;10.80;;;3.00;;
51248;SDS011;39642;47.556;18.728;2023-11-21T05:26:01;10.38;;;3.22;;
51248;SDS011;39642;47.556;18.728;2023-11-21T05:28:26;10.05;;;3.10;;
51248;SDS011;39642;47.556;18.728;2023-11-21T05:30:52;10.00;;;3.10;;
51248;SDS011;39642;47.556;18.728;2023-11-21T05:33:18;9.25;;;3.00;;
51248;SDS011;39642;47.556;18.728;2023-11-21T05:35:44;10.27;;;3.17;;
51248;SDS011;39642;47.556;18.728;2023-11-21T05:38:10;11.07;;;3.65;;
51248;SDS011;39642;47.556;18.728;2023-11-21T05:40:37;10.38;;;3.70;;
51248;SDS011;39642;47.556;18.728;2023-11-21T05:43:03;11.38;;;3.90;;
51248;SDS011;39642;47.556;18.728;2023-11-21T05:45:30;12.70;;;5.57;;
51248;SDS011;39642;47.556;18.728;2023-11-21T05:47:57;12.25;;;4.95;;
51248;SDS011;39642;47.556;18.728;2023-11-21T05:50:24;16.27;;;6.68;;
51248;SDS011;39642;47.556;18.728;2023-11-21T05:52:50;15.05;;;5.78;;
51248;SDS011;39642;47.556;18.728;2023-11-21T05:55:16;13.52;;;4.30;;
51248;SDS011;39642;47.556;18.728;2023-11-21T05:57:42;12.88;;;3.67;;
51248;SDS011;39642;47.556;18.728;2023-11-21T06:00:10;11.77;;;3.85;;
51248;SDS011;39642;47.556;18.728;2023-11-21T06:02:51;13.95;;;4.18;;
51248;SDS011;39642;47.556;18.728;2023-11-21T06:05:19;11.73;;;3.45;;
51248;SDS011;39642;47.556;18.728;2023-11-21T06:07:49;12.65;;;4.43;;
51248;SDS011;39642;47.556;18.728;2023-11-21T06:10:15;14.77;;;5.65;;
51248;SDS011;39642;47.556;18.728;2023-11-21T06:12:43;14.07;;;4.47;;
51248;SDS011;39642;47.556;18.728;2023-11-21T06:15:09;15.63;;;4.82;;
51248;SDS011;39642;47.556;18.728;2023-11-21T06:17:39;17.20;;;5.55;;
51248;SDS011;39642;47.556;18.728;2023-11-21T06:20:06;19.27;;;6.68;;
51248;SDS011;39642;47.556;18.728;2023-11-21T06:22:40;25.08;;;9.00;;
51248;SDS011;39642;47.556;18.728;2023-11-21T06:25:11;20.12;;;8.05;;
51248;SDS011;39642;47.556;18.728;2023-11-21T06:27:45;38.63;;;11.60;;
51248;SDS011;39642;47.556;18.728;2023-11-21T06:30:17;35.30;;;10.27;;
51248;SDS011;39642;47.556;18.728;2023-11-21T06:32:45;38.30;;;11.15;;
51248;SDS011;39642;47.556;18.728;2023-11-21T06:35:11;36.47;;;10.38;;
51248;SDS011;39642;47.556;18.728;2023-11-21T06:37:38;21.27;;;7.87;;
51248;SDS011;39642;47.556;18.728;2023-11-21T06:40:04;19.58;;;5.70;;
51248;SDS011;39642;47.556;18.728;2023-11-21T06:42:31;20.52;;;6.43;;
51248;SDS011;39642;47.556;18.728;2023-11-21T06:44:58;27.25;;;8.18;;
51248;SDS011;39642;47.556;18.728;2023-11-21T06:47:25;19.50;;;6.87;;
51248;SDS011;39642;47.556;18.728;2023-11-21T06:49:51;33.13;;;9.75;;
51248;SDS011;39642;47.556;18.728;2023-11-21T06:52:18;15.50;;;5.40;;
51248;SDS011;39642;47.556;18.728;2023-11-21T06:54:44;26.73;;;6.65;;
51248;SDS011;39642;47.556;18.728;2023-11-21T06:57:11;23.70;;;7.40;;
51248;SDS011;39642;47.556;18.728;2023-11-21T06:59:37;19.45;;;5.25;;
51248;SDS011;39642;47.556;18.728;2023-11-21T07:02:03;26.90;;;7.03;;
51248;SDS011;39642;47.556;18.728;2023-11-21T07:04:32;24.42;;;7.80;;
51248;SDS011;39642;47.556;18.728;2023-11-21T07:06:58;28.60;;;6.87;;
51248;SDS011;39642;47.556;18.728;2023-11-21T07:09:25;18.67;;;6.45;;
51248;SDS011;39642;47.556;18.728;2023-11-21T07:11:54;24.65;;;6.68;;
51248;SDS011;39642;47.556;18.728;2023-11-21T07:14:20;42.78;;;7.68;;
51248;SDS011;39642;47.556;18.728;2023-11-21T07:16:46;41.30;;;7.07;;
51248;SDS011;39642;47.556;18.728;2023-11-21T07:19:13;99.07;;;11.48;;
51248;SDS011;39642;47.556;18.728;2023-11-21T07:21:39;89.95;;;12.27;;
51248;SDS011;39642;47.556;18.728;2023-11-21T07:24:06;73.93;;;11.73;;
51248;SDS011;39642;47.556;18.728;2023-11-21T07:26:33;65.82;;;10.48;;
51248;SDS011;39642;47.556;18.728;2023-11-21T07:29:00;63.15;;;9.45;;
51248;SDS011;39642;47.556;18.728;2023-11-21T07:31:28;58.58;;;9.75;;
51248;SDS011;39642;47.556;18.728;2023-11-21T07:33:54;52.95;;;7.95;;
51248;SDS011;39642;47.556;18.728;2023-11-21T07:36:23;53.30;;;8.43;;
51248;SDS011;39642;47.556;18.728;2023-11-21T07:38:49;54.45;;;8.35;;
51248;SDS011;39642;47.556;18.728;2023-11-21T07:41:15;44.80;;;8.02;;
51248;SDS011;39642;47.556;18.728;2023-11-21T07:43:43;56.65;;;8.77;;
51248;SDS011;39642;47.556;18.728;2023-11-21T07:46:10;42.95;;;8.00;;
51248;SDS011;39642;47.556;18.728;2023-11-21T07:48:38;42.20;;;6.82;;
51248;SDS011;39642;47.556;18.728;2023-11-21T07:51:04;31.05;;;6.85;;
51248;SDS011;39642;47.556;18.728;2023-11-21T07:53:32;48.90;;;8.40;;
51248;SDS011;39642;47.556;18.728;2023-11-21T07:55:58;41.03;;;8.32;;
51248;SDS011;39642;47.556;18.728;2023-11-21T07:58:28;33.25;;;8.00;;
51248;SDS011;39642;47.556;18.728;2023-11-21T08:00:54;35.88;;;8.30;;
51248;SDS011;39642;47.556;18.728;2023-11-21T08:03:20;45.03;;;8.40;;
51248;SDS011;39642;47.556;18.728;2023-11-21T08:05:46;31.30;;;7.57;;
51248;SDS011;39642;47.556;18.728;2023-11-21T08:08:12;22.42;;;6.55;;
51248;SDS011;39642;47.556;18.728;2023-11-21T08:10:38;35.42;;;8.25;;
51248;SDS011;39642;47.556;18.728;2023-11-21T08:13:04;36.63;;;7.37;;
51248;SDS011;39642;47.556;18.728;2023-11-21T08:15:31;27.62;;;6.75;;
51248;SDS011;39642;47.556;18.728;2023-11-21T08:17:58;28.75;;;8.10;;
51248;SDS011;39642;47.556;18.728;2023-11-21T08:20:26;33.47;;;8.75;;
51248;SDS011;39642;47.556;18.728;2023-11-21T08:22:53;35.08;;;8.60;;
51248;SDS011;39642;47.556;18.728;2023-11-21T08:25:22;28.20;;;7.53;;
51248;SDS011;39642;47.556;18.728;2023-11-21T08:27:48;33.28;;;8.27;;
51248;SDS011;39642;47.556;18.728;2023-11-21T08:30:14;24.85;;;6.97;;
51248;SDS011;39642;47.556;18.728;2023-11-21T08:32:42;27.95;;;8.35;;
51248;SDS011;39642;47.556;18.728;2023-11-21T08:35:08;35.05;;;9.43;;
51248;SDS011;39642;47.556;18.728;2023-11-21T08:37:34;26.67;;;7.37;;
51248;SDS011;39642;47.556;18.728;2023-11-21T08:40:05;29.05;;;8.25;;
51248;SDS011;39642;47.556;18.728;2023-11-21T08:42:35;31.05;;;8.25;;
51248;SDS011;39642;47.556;18.728;2023-11-21T08:45:01;39.08;;;8.93;;
51248;SDS011;39642;47.556;18.728;2023-11-21T08:47:27;28.48;;;7.65;;
51248;SDS011;39642;47.556;18.728;2023-11-21T08:49:53;35.92;;;8.05;;
51248;SDS011;39642;47.556;18.728;2023-11-21T08:52:19;37.92;;;9.68;;
51248;SDS011;39642;47.556;18.728;2023-11-21T08:54:51;36.20;;;9.50;;
51248;SDS011;39642;47.556;18.728;2023-11-21T08:57:24;38.28;;;8.80;;
51248;SDS011;39642;47.556;18.728;2023-11-21T08:59:50;23.62;;;6.60;;
51248;SDS011;39642;47.556;18.728;2023-11-21T09:02:21;25.65;;;7.37;;
51248;SDS011;39642;47.556;18.728;2023-11-21T09:04:50;32.28;;;9.00;;
51248;SDS011;39642;47.556;18.728;2023-11-21T09:07:18;35.35;;;9.15;;
51248;SDS011;39642;47.556;18.728;2023-11-21T09:09:46;30.95;;;8.68;;
51248;SDS011;39642;47.556;18.728;2023-11-21T09:12:13;25.45;;;8.57;;
51248;SDS011;39642;47.556;18.728;2023-11-21T09:14:39;30.67;;;8.60;;
51248;SDS011;39642;47.556;18.728;2023-11-21T09:17:05;24.95;;;8.70;;
51248;SDS011;39642;47.556;18.728;2023-11-21T09:19:42;26.30;;;7.50;;
51248;SDS011;39642;47.556;18.728;2023-11-21T09:22:15;25.65;;;7.82;;
51248;SDS011;39642;47.556;18.728;2023-11-21T09:24:42;25.15;;;8.30;;
51248;SDS011;39642;47.556;18.728;2023-11-21T09:27:08;22.35;;;8.75;;
51248;SDS011;39642;47.556;18.728;2023-11-21T09:29:35;21.80;;;8.68;;
51248;SDS011;39642;47.556;18.728;2023-11-21T09:32:04;24.50;;;10.32;;
51248;SDS011;39642;47.556;18.728;2023-11-21T09:34:33;27.27;;;10.63;;
51248;SDS011;39642;47.556;18.728;2023-11-21T09:37:07;31.35;;;11.82;;
51248;SDS011;39642;47.556;18.728;2023-11-21T09:39:33;28.15;;;11.52;;
51248;SDS011;39642;47.556;18.728;2023-11-21T09:42:23;33.35;;;11.88;;
51248;SDS011;39642;47.556;18.728;2023-11-21T09:44:58;29.10;;;10.70;;
51248;SDS011;39642;47.556;18.728;2023-11-21T09:47:46;40.58;;;11.60;;
51248;SDS011;39642;47.556;18.728;2023-11-21T09:50:13;50.15;;;10.32;;
51248;SDS011;39642;47.556;18.728;2023-11-21T09:55:16;50.60;;;10.70;;
51248;SDS011;39642;47.556;18.728;2023-11-21T09:57:47;34.90;;;10.27;;
51248;SDS011;39642;47.556;18.728;2023-11-21T10:00:16;52.53;;;11.20;;
51248;SDS011;39642;47.556;18.728;2023-11-21T10:02:46;48.83;;;10.18;;
51248;SDS011;39642;47.556;18.728;2023-11-21T10:05:15;44.25;;;9.93;;
51248;SDS011;39642;47.556;18.728;2023-11-21T10:07:45;36.20;;;9.95;;
51248;SDS011;39642;47.556;18.728;2023-11-21T10:10:13;30.10;;;10.15;;
51248;SDS011;39642;47.556;18.728;2023-11-21T10:12:42;36.35;;;10.63;;
51248;SDS011;39642;47.556;18.728;2023-11-21T10:15:12;30.12;;;9.40;;
51248;SDS011;39642;47.556;18.728;2023-11-21T10:17:41;36.15;;;9.70;;
51248;SDS011;39642;47.556;18.728;2023-11-21T10:20:11;32.72;;;9.07;;
51248;SDS011;39642;47.556;18.728;2023-11-21T10:22:42;30.85;;;9.57;;
51248;SDS011;39642;47.556;18.728;2023-11-21T10:25:09;35.78;;;9.77;;
51248;SDS011;39642;47.556;18.728;2023-11-21T10:27:38;30.58;;;10.00;;
51248;SDS011;39642;47.556;18.728;2023-11-21T10:30:05;40.00;;;9.63;;
51248;SDS011;39642;47.556;18.728;2023-11-21T10:32:32;32.00;;;9.63;;
51248;SDS011;39642;47.556;18.728;2023-11-21T10:34:58;29.12;;;9.35;;
51248;SDS011;39642;47.556;18.728;2023-11-21T10:37:32;30.08;;;9.32;;
51248;SDS011;39642;47.556;18.728;2023-11-21T10:39:58;34.35;;;8.80;;
51248;SDS011;39642;47.556;18.728;2023-11-21T10:42:25;32.28;;;9.60;;
51248;SDS011;39642;47.556;18.728;2023-11-21T10:44:55;31.65;;;9.55;;
51248;SDS011;39642;47.556;18.728;2023-11-21T10:47:21;43.92;;;9.50;;
51248;SDS011;39642;47.556;18.728;2023-11-21T10:49:48;38.80;;;10.10;;
51248;SDS011;39642;47.556;18.728;2023-11-21T10:52:14;37.28;;;9.65;;
51248;SDS011;39642;47.556;18.728;2023-11-21T10:54:43;38.17;;;9.73;;
51248;SDS011;39642;47.556;18.728;2023-11-21T10:57:09;36.13;;;11.15;;
51248;SDS011;39642;47.556;18.728;2023-11-21T10:59:40;43.38;;;10.23;;
51248;SDS011;39642;47.556;18.728;2023-11-21T11:02:28;40.90;;;9.63;;
51248;SDS011;39642;47.556;18.728;2023-11-21T11:04:53;43.47;;;9.98;;
51248;SDS011;39642;47.556;18.728;2023-11-21T11:07:26;33.97;;;8.93;;
51248;SDS011;39642;47.556;18.728;2023-11-21T11:09:53;34.17;;;9.43;;
51248;SDS011;39642;47.556;18.728;2023-11-21T11:12:20;45.17;;;9.25;;
51248;SDS011;39642;47.556;18.728;2023-11-21T11:14:47;37.58;;;9.32;;
51248;SDS011;39642;47.556;18.728;2023-11-21T11:17:14;43.60;;;9.90;;
51248;SDS011;39642;47.556;18.728;2023-11-21T11:19:40;31.77;;;9.80;;
51248;SDS011;39642;47.556;18.728;2023-11-21T11:22:19;31.73;;;8.80;;
51248;SDS011;39642;47.556;18.728;2023-11-21T11:38:51;33.58;;;7.07;;
51248;SDS011;39642;47.556;18.728;2023-11-21T11:41:29;39.25;;;8.20;;
51248;SDS011;39642;47.556;18.728;2023-11-21T11:43:58;28.20;;;7.60;;
51248;SDS011;39642;47.556;18.728;2023-11-21T11:46:41;30.73;;;7.28;;
51248;SDS011;39642;47.556;18.728;2023-11-21T11:49:07;27.10;;;6.97;;
51248;SDS011;39642;47.556;18.728;2023-11-21T11:51:33;32.42;;;8.20;;
51248;SDS011;39642;47.556;18.728;2023-11-21T11:54:01;42.97;;;7.93;;
51248;SDS011;39642;47.556;18.728;2023-11-21T11:56:28;38.78;;;8.27;;
51248;SDS011;39642;47.556;18.728;2023-11-21T11:58:58;39.22;;;8.45;;
51248;SDS011;39642;47.556;18.728;2023-11-21T12:01:28;31.85;;;8.45;;
51248;SDS011;39642;47.556;18.728;2023-11-21T12:07:00;46.75;;;9.05;;
51248;SDS011;39642;47.556;18.728;2023-11-21T12:09:30;33.92;;;8.90;;
51248;SDS011;39642;47.556;18.728;2023-11-21T12:11:57;48.75;;;8.65;;
51248;SDS011;39642;47.556;18.728;2023-11-21T12:14:23;55.80;;;9.43;;
51248;SDS011;39642;47.556;18.728;2023-11-21T12:16:49;45.67;;;10.02;;
51248;SDS011;39642;47.556;18.728;2023-11-21T12:19:15;39.45;;;10.18;;
51248;SDS011;39642;47.556;18.728;2023-11-21T12:21:41;35.72;;;9.13;;
51248;SDS011;39642;47.556;18.728;2023-11-21T12:24:07;29.75;;;8.52;;
51248;SDS011;39642;47.556;18.728;2023-11-21T12:26:39;34.90;;;8.68;;
51248;SDS011;39642;47.556;18.728;2023-11-21T12:29:05;32.20;;;9.30;;
51248;SDS011;39642;47.556;18.728;2023-11-21T12:31:33;32.40;;;9.60;;
51248;SDS011;39642;47.556;18.728;2023-11-21T12:34:00;37.90;;;9.35;;
51248;SDS011;39642;47.556;18.728;2023-11-21T12:36:26;32.50;;;8.40;;
51248;SDS011;39642;47.556;18.728;2023-11-21T12:38:54;47.28;;;10.27;;
51248;SDS011;39642;47.556;18.728;2023-11-21T12:41:21;30.27;;;9.48;;
51248;SDS011;39642;47.556;18.728;2023-11-21T12:43:47;36.10;;;10.25;;
51248;SDS011;39642;47.556;18.728;2023-11-21T12:46:13;47.88;;;10.60;;
51248;SDS011;39642;47.556;18.728;2023-11-21T12:48:43;34.92;;;10.52;;
51248;SDS011;39642;47.556;18.728;2023-11-21T12:51:09;39.42;;;10.80;;
51248;SDS011;39642;47.556;18.728;2023-11-21T12:53:40;42.88;;;10.85;;
51248;SDS011;39642;47.556;18.728;2023-11-21T12:56:10;46.10;;;10.85;;
51248;SDS011;39642;47.556;18.728;2023-11-21T12:58:37;47.30;;;10.95;;
51248;SDS011;39642;47.556;18.728;2023-11-21T13:01:07;36.28;;;10.13;;
51248;SDS011;39642;47.556;18.728;2023-11-21T13:03:37;37.72;;;11.80;;
51248;SDS011;39642;47.556;18.728;2023-11-21T13:06:05;34.80;;;10.75;;
51248;SDS011;39642;47.556;18.728;2023-11-21T13:08:33;40.50;;;11.18;;
51248;SDS011;39642;47.556;18.728;2023-11-21T13:10:59;33.50;;;10.95;;
51248;SDS011;39642;47.556;18.728;2023-11-21T13:13:27;36.47;;;11.43;;
51248;SDS011;39642;47.556;18.728;2023-11-21T13:15:55;34.10;;;12.27;;
51248;SDS011;39642;47.556;18.728;2023-11-21T13:18:22;34.72;;;10.38;;
51248;SDS011;39642;47.556;18.728;2023-11-21T13:20:52;35.55;;;10.25;;
51248;SDS011;39642;47.556;18.728;2023-11-21T13:23:22;31.15;;;10.68;;
51248;SDS011;39642;47.556;18.728;2023-11-21T13:25:48;29.17;;;10.27;;
51248;SDS011;39642;47.556;18.728;2023-11-21T13:28:15;34.13;;;11.82;;
51248;SDS011;39642;47.556;18.728;2023-11-21T13:30:43;42.80;;;10.85;;
51248;SDS011;39642;47.556;18.728;2023-11-21T13:33:10;36.95;;;8.98;;
51248;SDS011;39642;47.556;18.728;2023-11-21T13:35:43;31.33;;;7.80;;
51248;SDS011;39642;47.556;18.728;2023-11-21T13:38:14;26.45;;;8.25;;
51248;SDS011;39642;47.556;18.728;2023-11-21T13:40:46;34.28;;;10.38;;
51248;SDS011;39642;47.556;18.728;2023-11-21T13:43:20;33.17;;;10.23;;
51248;SDS011;39642;47.556;18.728;2023-11-21T13:45:50;39.33;;;11.93;;
51248;SDS011;39642;47.556;18.728;2023-11-21T13:48:23;54.40;;;20.37;;
51248;SDS011;39642;47.556;18.728;2023-11-21T13:51:14;31.77;;;10.23;;
51248;SDS011;39642;47.556;18.728;2023-11-21T13:53:43;63.42;;;23.15;;
51248;SDS011;39642;47.556;18.728;2023-11-21T13:56:11;116.97;;;44.75;;
51248;SDS011;39642;47.556;18.728;2023-11-21T13:58:38;89.62;;;34.63;;
51248;SDS011;39642;47.556;18.728;2023-11-21T14:01:13;144.60;;;58.85;;
51248;SDS011;39642;47.556;18.728;2023-11-21T14:03:59;49.53;;;20.15;;
51248;SDS011;39642;47.556;18.728;2023-11-21T14:06:47;241.43;;;92.35;;
51248;SDS011;39642;47.556;18.728;2023-11-21T14:09:15;40.97;;;14.30;;
51248;SDS011;39642;47.556;18.728;2023-11-21T14:11:54;41.45;;;12.75;;
51248;SDS011;39642;47.556;18.728;2023-11-21T14:14:26;238.32;;;85.30;;
51248;SDS011;39642;47.556;18.728;2023-11-21T14:16:55;55.58;;;19.20;;
51248;SDS011;39642;47.556;18.728;2023-11-21T14:19:22;55.70;;;17.45;;
51248;SDS011;39642;47.556;18.728;2023-11-21T14:21:52;51.92;;;17.58;;
51248;SDS011;39642;47.556;18.728;2023-11-21T14:24:18;58.53;;;19.92;;
51248;SDS011;39642;47.556;18.728;2023-11-21T14:26:45;66.28;;;20.75;;
51248;SDS011;39642;47.556;18.728;2023-11-21T14:29:15;93.93;;;30.62;;
51248;SDS011;39642;47.556;18.728;2023-11-21T14:31:45;235.55;;;83.30;;
51248;SDS011;39642;47.556;18.728;2023-11-21T14:34:11;109.22;;;30.62;;
51248;SDS011;39642;47.556;18.728;2023-11-21T14:36:39;64.90;;;17.10;;
51248;SDS011;39642;47.556;18.728;2023-11-21T14:39:05;227.57;;;80.78;;
51248;SDS011;39642;47.556;18.728;2023-11-21T14:41:41;65.50;;;20.45;;
51248;SDS011;39642;47.556;18.728;2023-11-21T14:44:10;179.57;;;60.42;;
51248;SDS011;39642;47.556;18.728;2023-11-21T14:46:38;281.75;;;99.13;;